createdAt,value
2022-09-12T00:01:20.687Z,13.64
2022-09-12T00:03:51.793Z,13.67
2022-09-12T00:06:23.913Z,13.71
2022-09-12T00:08:55.327Z,13.74
2022-09-12T00:11:23.247Z,13.78
2022-09-12T00:13:51.040Z,13.81
2022-09-12T00:16:24.858Z,13.85
2022-09-12T00:18:53.773Z,13.87
2022-09-12T00:21:23.063Z,13.88
2022-09-12T00:23:51.758Z,13.86
2022-09-12T00:26:21.951Z,13.87
2022-09-12T00:28:50.584Z,13.86
2022-09-12T00:31:26.804Z,13.84
2022-09-12T00:33:57.277Z,13.81
2022-09-12T00:36:26.277Z,13.78
2022-09-12T00:38:54.785Z,13.76
2022-09-12T00:41:26.275Z,13.75
2022-09-12T00:43:58.672Z,13.75
2022-09-12T00:46:29.352Z,13.74
2022-09-12T00:49:03.823Z,13.75
2022-09-12T00:51:35.254Z,13.75
2022-09-12T00:54:08.353Z,13.76
2022-09-12T00:56:38.876Z,13.78
2022-09-12T00:59:17.657Z,13.79
2022-09-12T01:01:50.223Z,13.79
2022-09-12T01:04:22.733Z,13.78
2022-09-12T01:06:51.172Z,13.76
2022-09-12T01:09:23.635Z,13.75
2022-09-12T01:11:53.385Z,13.72
2022-09-12T01:14:21.919Z,13.67
2022-09-12T01:16:51.183Z,13.65
2022-09-12T01:19:33.333Z,13.67
2022-09-12T01:22:22.596Z,13.68
2022-09-12T01:24:50.635Z,13.69
2022-09-12T01:27:50.958Z,13.70
2022-09-12T01:30:25.685Z,13.70
2022-09-12T01:33:12.227Z,13.70
2022-09-12T01:35:46.140Z,13.72
2022-09-12T01:38:33.176Z,13.73
2022-09-12T01:41:09.978Z,13.74
2022-09-12T01:44:05.609Z,13.76
2022-09-12T01:46:45.839Z,13.75
2022-09-12T01:49:20.613Z,13.75
2022-09-12T01:52:06.415Z,13.77
2022-09-12T01:54:44.119Z,13.80
2022-09-12T01:57:21.822Z,13.83
2022-09-12T01:59:54.404Z,13.87
2022-09-12T02:02:28.537Z,13.90
2022-09-12T02:05:28.273Z,13.94
2022-09-12T02:08:29.346Z,13.98
2022-09-12T02:11:02.290Z,14.01
2022-09-12T02:13:43.257Z,14.03
2022-09-12T02:16:35.415Z,14.05
2022-09-12T02:19:11.210Z,14.06
2022-09-12T02:21:42.437Z,14.06
2022-09-12T02:24:14.733Z,14.08
2022-09-12T02:26:52.740Z,14.11
2022-09-12T02:29:21.087Z,14.15
2022-09-12T02:31:57.912Z,14.20
2022-09-12T02:34:25.589Z,14.25
2022-09-12T02:36:56.361Z,14.30
2022-09-12T02:39:24.787Z,14.33
2022-09-12T02:41:56.088Z,14.37
2022-09-12T02:44:26.072Z,14.36
2022-09-12T02:47:14.074Z,14.36
2022-09-12T02:49:41.987Z,14.36
2022-09-12T02:52:10.021Z,14.38
2022-09-12T02:54:38.283Z,14.40
2022-09-12T02:57:20.638Z,14.41
2022-09-12T02:59:53.661Z,14.40
2022-09-12T03:02:52.481Z,14.40
2022-09-12T03:05:47.386Z,14.36
2022-09-12T03:08:41.735Z,14.37
2022-09-12T03:11:34.314Z,14.38
2022-09-12T03:14:23.301Z,14.34
2022-09-12T03:17:31.457Z,14.33
2022-09-12T03:20:25.185Z,14.29
2022-09-12T03:23:02.893Z,14.25
2022-09-12T03:25:40.351Z,14.23
2022-09-12T03:28:12.042Z,14.19
2022-09-12T03:30:44.298Z,14.19
2022-09-12T03:33:13.815Z,14.19
2022-09-12T03:35:42.356Z,14.17
2022-09-12T03:38:10.476Z,14.16
2022-09-12T03:40:39.279Z,14.11
2022-09-12T03:43:08.864Z,14.08
2022-09-12T03:45:37.655Z,14.08
2022-09-12T03:48:06.551Z,14.07
2022-09-12T03:50:34.697Z,14.06
2022-09-12T03:53:03.785Z,14.04
2022-09-12T03:55:31.829Z,14.04
2022-09-12T03:57:59.781Z,14.04
2022-09-12T04:00:27.677Z,14.00
2022-09-12T04:02:58.641Z,13.97
2022-09-12T04:05:26.676Z,13.93
2022-09-12T04:07:54.534Z,13.88
2022-09-12T04:10:22.791Z,13.87
2022-09-12T04:12:51.945Z,13.85
2022-09-12T04:15:19.883Z,13.82
2022-09-12T04:17:47.650Z,13.81
2022-09-12T04:20:15.572Z,13.82
2022-09-12T04:22:43.471Z,13.80
2022-09-12T04:25:11.917Z,13.77
2022-09-12T04:27:39.850Z,13.75
2022-09-12T04:30:08.988Z,13.70
2022-09-12T04:32:37.085Z,13.69
2022-09-12T04:35:05.309Z,13.66
2022-09-12T04:37:33.170Z,13.58
2022-09-12T04:40:01.001Z,13.55
2022-09-12T04:42:29.906Z,13.56
2022-09-12T04:44:58.007Z,13.55
2022-09-12T04:47:25.858Z,13.54
2022-09-12T04:49:54.100Z,13.52
2022-09-12T04:52:22.211Z,13.51
2022-09-12T04:54:50.807Z,13.50
2022-09-12T04:57:18.762Z,13.51
2022-09-12T04:59:46.645Z,13.54
2022-09-12T05:02:14.613Z,13.56
2022-09-12T05:04:42.622Z,13.55
2022-09-12T05:07:10.551Z,13.60
2022-09-12T05:09:38.510Z,13.65
2022-09-12T05:12:07.535Z,13.71
2022-09-12T05:14:35.718Z,13.77
2022-09-12T05:17:06.643Z,13.79
2022-09-12T05:19:35.186Z,13.82
2022-09-12T05:22:05.096Z,13.83
2022-09-12T05:24:33.094Z,13.79
2022-09-12T05:27:01.298Z,13.73
2022-09-12T05:29:29.164Z,13.69
2022-09-12T05:31:57.021Z,13.78
2022-09-12T05:34:25.117Z,13.86
2022-09-12T05:36:53.005Z,13.95
2022-09-12T05:39:22.137Z,14.05
2022-09-12T05:41:50.061Z,14.14
2022-09-12T05:44:18.022Z,14.17
2022-09-12T05:46:50.465Z,14.25
2022-09-12T05:49:18.455Z,14.52
2022-09-12T05:51:46.708Z,14.72
2022-09-12T05:54:18.211Z,15.22
2022-09-12T05:56:47.161Z,15.75
2022-09-12T05:59:20.730Z,15.84
2022-09-12T06:01:49.079Z,15.80
2022-09-12T06:04:17.759Z,15.69
2022-09-12T06:06:46.240Z,15.45
2022-09-12T06:09:15.968Z,15.41
2022-09-12T06:11:45.911Z,15.62
2022-09-12T06:14:17.594Z,15.83
2022-09-12T06:16:47.472Z,15.86
2022-09-12T06:19:21.740Z,15.92
2022-09-12T06:21:51.672Z,15.98
2022-09-12T06:24:21.164Z,15.99
2022-09-12T06:26:50.223Z,15.86
2022-09-12T06:29:19.510Z,16.16
2022-09-12T06:31:47.527Z,16.43
2022-09-12T06:34:16.382Z,16.41
2022-09-12T06:36:47.982Z,16.19
2022-09-12T06:39:23.407Z,15.87
2022-09-12T06:41:52.333Z,15.81
2022-09-12T06:44:31.790Z,15.99
2022-09-12T06:46:59.715Z,15.96
2022-09-12T06:49:27.622Z,15.81
2022-09-12T06:51:55.633Z,16.18
2022-09-12T06:54:23.732Z,16.25
2022-09-12T06:56:52.260Z,16.15
2022-09-12T06:59:20.236Z,16.44
2022-09-12T07:01:48.434Z,16.59
2022-09-12T07:04:16.855Z,16.64
2022-09-12T07:06:45.084Z,16.74
2022-09-12T07:09:18.049Z,16.99
2022-09-12T07:11:46.760Z,17.37
2022-09-12T07:14:15.129Z,17.43
2022-09-12T07:16:43.539Z,17.69
2022-09-12T07:19:12.261Z,17.95
2022-09-12T07:21:40.992Z,17.94
2022-09-12T07:24:11.105Z,17.60
2022-09-12T07:26:42.503Z,17.28
2022-09-12T07:32:06.731Z,17.46
2022-09-12T07:34:36.085Z,17.48
2022-09-12T07:37:04.997Z,17.48
2022-09-12T07:39:32.950Z,17.73
2022-09-12T07:42:01.162Z,17.46
2022-09-12T07:44:30.904Z,17.02
2022-09-12T07:46:58.897Z,16.85
2022-09-12T07:49:27.027Z,17.15
2022-09-12T07:51:55.207Z,17.28
2022-09-12T07:54:23.629Z,17.29
2022-09-12T07:56:51.866Z,17.13
2022-09-12T07:59:35.624Z,16.65
2022-09-12T08:02:17.473Z,16.53
2022-09-12T08:04:48.728Z,16.63
2022-09-12T08:07:18.533Z,16.75
2022-09-12T08:09:47.216Z,16.91
2022-09-12T08:12:16.685Z,16.87
2022-09-12T08:14:44.712Z,16.89
2022-09-12T08:17:14.465Z,16.96
2022-09-12T08:19:42.912Z,16.79
2022-09-12T08:22:12.414Z,16.64
2022-09-12T08:24:40.970Z,16.63
2022-09-12T08:27:09.208Z,16.58
2022-09-12T08:29:37.427Z,16.52
2022-09-12T08:32:05.870Z,16.49
2022-09-12T08:34:34.138Z,16.62
2022-09-12T08:37:02.206Z,16.47
2022-09-12T08:39:30.328Z,16.32
2022-09-12T08:42:06.554Z,16.27
2022-09-12T08:44:54.034Z,16.08
2022-09-12T08:47:34.288Z,16.09
2022-09-12T08:50:08.375Z,16.28
2022-09-12T08:52:44.936Z,16.32
2022-09-12T08:55:36.326Z,16.39
2022-09-12T08:58:17.281Z,16.37
2022-09-12T09:01:08.884Z,16.04
2022-09-12T09:04:09.473Z,16.09
2022-09-12T09:06:43.521Z,16.21
2022-09-12T09:09:41.490Z,16.12
2022-09-12T09:12:33.805Z,15.92
2022-09-12T09:15:23.757Z,16.02
2022-09-12T09:17:56.177Z,16.19
2022-09-12T09:20:48.821Z,16.45
2022-09-12T09:23:31.338Z,16.48
2022-09-12T09:26:14.826Z,16.38
2022-09-12T09:28:50.137Z,16.40
2022-09-12T09:31:24.917Z,16.51
2022-09-12T09:33:57.217Z,16.69
2022-09-12T09:36:49.731Z,16.72
2022-09-12T09:39:42.563Z,16.64
2022-09-12T09:42:38.742Z,16.67
2022-09-12T09:45:20.101Z,16.77
2022-09-12T09:48:17.425Z,16.65
2022-09-12T09:50:49.943Z,16.70
2022-09-12T09:53:32.432Z,16.79
2022-09-12T09:56:05.774Z,16.92
2022-09-12T09:58:36.411Z,16.84
2022-09-12T10:01:12.320Z,16.90
2022-09-12T10:03:47.468Z,16.92
2022-09-12T10:06:34.503Z,17.13
2022-09-12T10:09:13.293Z,17.07
2022-09-12T10:11:45.661Z,17.04
2022-09-12T10:14:26.445Z,17.10
2022-09-12T10:16:55.038Z,17.05
2022-09-12T10:19:43.508Z,17.09
2022-09-12T10:22:19.041Z,17.03
2022-09-12T10:24:52.802Z,16.99
2022-09-12T10:27:23.644Z,17.02
2022-09-12T10:30:00.614Z,17.02
2022-09-12T10:32:36.439Z,17.18
2022-09-12T10:35:09.368Z,17.14
2022-09-12T10:37:39.917Z,17.31
2022-09-12T10:40:22.905Z,17.31
2022-09-12T10:42:54.053Z,17.23
2022-09-12T10:45:37.659Z,17.15
2022-09-12T10:48:29.920Z,17.25
2022-09-12T10:51:00.149Z,17.33
2022-09-12T10:53:34.751Z,17.40
2022-09-12T10:56:12.688Z,17.52
2022-09-12T10:59:18.100Z,17.51
2022-09-12T11:02:14.985Z,17.18
2022-09-12T11:05:08.450Z,17.27
2022-09-12T11:07:54.074Z,17.34
2022-09-12T11:10:51.987Z,17.30
2022-09-12T11:13:35.016Z,17.11
2022-09-12T11:16:23.233Z,17.01
2022-09-12T11:19:18.366Z,16.91
2022-09-12T11:22:31.543Z,17.08
2022-09-12T11:25:10.652Z,17.14
2022-09-12T11:28:00.729Z,17.25
2022-09-12T11:30:39.997Z,17.30
2022-09-12T11:33:22.946Z,17.40
2022-09-12T11:35:55.534Z,17.55
2022-09-12T11:38:48.631Z,17.60
2022-09-12T11:41:31.621Z,17.52
2022-09-12T11:44:28.825Z,17.55
2022-09-12T11:46:57.839Z,17.56
2022-09-12T11:49:37.192Z,17.54
2022-09-12T11:52:18.924Z,17.58
2022-09-12T11:55:06.049Z,17.74
2022-09-12T11:57:50.499Z,17.86
2022-09-12T12:00:20.427Z,17.96
2022-09-12T12:02:56.172Z,17.96
2022-09-12T12:05:58.590Z,17.72
2022-09-12T12:08:29.965Z,17.56
2022-09-12T12:11:01.142Z,17.64
2022-09-12T12:13:29.665Z,17.82
2022-09-12T12:16:07.136Z,17.93
2022-09-12T12:18:40.092Z,17.90
2022-09-12T12:21:32.249Z,17.76
2022-09-12T12:24:09.303Z,17.68
2022-09-12T12:26:40.335Z,17.81
2022-09-12T12:29:17.342Z,17.95
2022-09-12T12:32:06.577Z,18.05
2022-09-12T12:34:42.949Z,18.14
2022-09-12T12:37:25.516Z,18.16
2022-09-12T12:40:01.567Z,18.23
2022-09-12T12:42:36.288Z,18.34
2022-09-12T12:45:24.438Z,18.41
2022-09-12T12:48:11.691Z,18.41
2022-09-12T12:50:40.062Z,18.54
2022-09-12T12:53:20.663Z,18.63
2022-09-12T12:55:52.697Z,18.71
2022-09-12T12:58:38.349Z,18.70
2022-09-12T13:01:17.170Z,18.64
2022-09-12T13:03:53.892Z,18.59
2022-09-12T13:06:38.394Z,18.69
2022-09-12T13:09:22.038Z,18.66
2022-09-12T13:12:00.868Z,18.53
2022-09-12T13:14:34.769Z,18.58
2022-09-12T13:17:07.998Z,18.67
2022-09-12T13:19:38.020Z,18.57
2022-09-12T13:22:08.856Z,18.46
2022-09-12T13:24:54.487Z,18.50
2022-09-12T13:27:25.680Z,18.36
2022-09-12T13:30:15.494Z,18.16
2022-09-12T13:32:44.417Z,18.08
2022-09-12T13:35:38.706Z,18.09
2022-09-12T13:38:24.372Z,17.99
2022-09-12T13:41:24.323Z,17.84
2022-09-12T13:43:53.263Z,17.78
2022-09-12T13:46:30.355Z,17.89
2022-09-12T13:49:01.977Z,17.91
2022-09-12T13:51:32.377Z,17.95
2022-09-12T13:54:05.211Z,17.97
2022-09-12T13:56:33.974Z,17.98
2022-09-12T13:59:03.173Z,17.96
2022-09-12T14:01:47.754Z,17.88
2022-09-12T14:04:41.103Z,17.82
2022-09-12T14:07:22.410Z,17.73
2022-09-12T14:09:56.775Z,17.57
2022-09-12T14:12:26.629Z,17.59
2022-09-12T14:14:55.563Z,17.54
2022-09-12T14:17:36.360Z,17.59
2022-09-12T14:20:16.284Z,17.70
2022-09-12T14:22:49.251Z,17.76
2022-09-12T14:25:29.761Z,17.85
2022-09-12T14:27:58.278Z,17.94
2022-09-12T14:30:33.067Z,18.00
2022-09-12T14:33:06.129Z,18.02
2022-09-12T14:35:34.655Z,18.06
2022-09-12T14:38:13.856Z,18.03
2022-09-12T14:40:48.763Z,17.85
2022-09-12T14:43:32.631Z,17.83
2022-09-12T14:46:20.718Z,17.83
2022-09-12T14:49:05.917Z,17.84
2022-09-12T14:51:51.681Z,17.79
2022-09-12T14:54:29.382Z,17.83
2022-09-12T14:57:01.035Z,17.80
2022-09-12T14:59:35.121Z,17.74
2022-09-12T15:02:21.394Z,17.78
2022-09-12T15:04:52.748Z,17.78
2022-09-12T15:07:31.766Z,17.75
2022-09-12T15:10:02.625Z,17.73
2022-09-12T15:12:33.322Z,17.72
2022-09-12T15:15:21.950Z,17.70
2022-09-12T15:17:50.099Z,17.72
2022-09-12T15:20:18.022Z,17.69
2022-09-12T15:22:46.094Z,17.66
2022-09-12T15:25:14.188Z,17.59
2022-09-12T15:27:42.511Z,17.57
2022-09-12T15:30:13.212Z,17.57
2022-09-12T15:32:43.714Z,17.50
2022-09-12T15:35:18.075Z,17.47
2022-09-12T15:37:46.097Z,17.44
2022-09-12T15:40:14.724Z,17.36
2022-09-12T15:42:43.381Z,17.30
2022-09-12T15:45:23.957Z,17.33
2022-09-12T15:47:52.126Z,17.26
2022-09-12T15:50:20.418Z,17.21
2022-09-12T15:52:48.619Z,17.11
2022-09-12T15:55:19.246Z,17.05
2022-09-12T15:57:47.216Z,17.02
2022-09-12T16:00:17.498Z,17.00
2022-09-12T16:02:47.532Z,16.94
2022-09-12T16:05:19.427Z,16.90
2022-09-12T16:07:47.695Z,16.84
2022-09-12T16:10:17.463Z,16.78
2022-09-12T16:12:46.312Z,16.73
2022-09-12T16:15:21.115Z,16.67
2022-09-12T16:17:50.580Z,16.62
2022-09-12T16:20:19.920Z,16.54
2022-09-12T16:22:48.724Z,16.44
2022-09-12T16:25:17.609Z,16.40
2022-09-12T16:27:48.679Z,16.32
2022-09-12T16:30:16.784Z,16.27
2022-09-12T16:32:44.771Z,16.22
2022-09-12T16:35:13.105Z,16.17
2022-09-12T16:37:41.407Z,16.13
2022-09-12T16:40:10.729Z,16.09
2022-09-12T16:42:43.545Z,16.04
2022-09-12T16:45:12.792Z,16.02
2022-09-12T16:47:41.009Z,15.98
2022-09-12T16:50:09.121Z,15.97
2022-09-12T16:52:37.024Z,15.92
2022-09-12T16:55:05.425Z,15.84
2022-09-12T16:57:33.294Z,15.75
2022-09-12T17:00:01.328Z,15.65
2022-09-12T17:02:29.285Z,15.59
2022-09-12T17:04:57.186Z,15.54
2022-09-12T17:07:25.169Z,15.49
2022-09-12T17:09:53.349Z,15.47
2022-09-12T17:12:21.319Z,15.46
2022-09-12T17:14:49.191Z,15.43
2022-09-12T17:17:17.331Z,15.42
2022-09-12T17:19:45.151Z,15.40
2022-09-12T17:22:13.122Z,15.37
2022-09-12T17:24:41.642Z,15.32
2022-09-12T17:27:09.715Z,15.27
2022-09-12T17:29:38.710Z,15.21
2022-09-12T17:32:06.690Z,15.16
2022-09-12T17:34:34.657Z,15.12
2022-09-12T17:37:02.964Z,15.07
2022-09-12T17:39:30.807Z,15.04
2022-09-12T17:41:59.154Z,15.03
2022-09-12T17:44:30.281Z,15.02
2022-09-12T17:46:58.141Z,15.00
2022-09-12T17:49:26.291Z,14.97
2022-09-12T17:51:56.298Z,14.94
2022-09-12T17:54:24.629Z,14.91
2022-09-12T17:56:52.601Z,14.89
2022-09-12T17:59:24.173Z,14.87
2022-09-12T18:02:10.740Z,14.89
2022-09-12T18:04:40.697Z,14.91
2022-09-12T18:07:08.714Z,14.91
2022-09-12T18:09:36.620Z,14.83
2022-09-12T18:12:05.850Z,14.80
2022-09-12T18:14:34.130Z,14.79
2022-09-12T18:17:02.191Z,14.78
2022-09-12T18:19:30.124Z,14.79
2022-09-12T18:21:58.521Z,14.80
2022-09-12T18:24:26.733Z,14.80
2022-09-12T18:26:58.439Z,14.81
2022-09-12T18:29:28.074Z,14.82
2022-09-12T18:31:56.419Z,14.78
2022-09-12T18:34:24.424Z,14.69
2022-09-12T18:36:55.097Z,14.57
2022-09-12T18:39:27.484Z,14.53
2022-09-12T18:41:56.246Z,14.49
2022-09-12T18:44:24.270Z,14.48
2022-09-12T18:46:52.428Z,14.46
2022-09-12T18:49:20.590Z,14.44
2022-09-12T18:51:48.443Z,14.39
2022-09-12T18:54:18.011Z,14.38
2022-09-12T18:56:46.090Z,14.35
2022-09-12T18:59:15.086Z,14.34
2022-09-12T19:01:43.960Z,14.32
2022-09-12T19:04:13.478Z,14.27
2022-09-12T19:06:44.508Z,14.22
2022-09-12T19:09:14.676Z,14.22
2022-09-12T19:11:48.991Z,14.22
2022-09-12T19:14:19.554Z,14.20
2022-09-12T19:16:47.413Z,14.17
2022-09-12T19:19:15.413Z,14.17
2022-09-12T19:21:43.266Z,14.16
2022-09-12T19:24:11.568Z,14.14
2022-09-12T19:26:39.619Z,14.14
2022-09-12T19:29:08.391Z,14.12
2022-09-12T19:31:36.275Z,14.11
2022-09-12T19:34:06.576Z,14.10
2022-09-12T19:36:50.161Z,14.10
2022-09-12T19:39:19.849Z,14.08
2022-09-12T19:41:48.606Z,14.07
2022-09-12T19:44:19.293Z,14.04
2022-09-12T19:46:47.514Z,14.02
2022-09-12T19:49:15.643Z,13.99
2022-09-12T19:51:44.039Z,13.97
2022-09-12T19:54:11.893Z,13.95
2022-09-12T19:56:39.752Z,13.92
2022-09-12T19:59:08.850Z,13.90
2022-09-12T20:01:37.646Z,13.89
2022-09-12T20:04:06.926Z,13.89
2022-09-12T20:06:35.122Z,13.86
2022-09-12T20:09:03.278Z,13.84
2022-09-12T20:11:31.510Z,13.83
2022-09-12T20:13:59.505Z,13.81
2022-09-12T20:16:29.658Z,13.78
2022-09-12T20:19:06.145Z,13.74
2022-09-12T20:21:36.181Z,13.70
2022-09-12T20:24:07.689Z,13.64
2022-09-12T20:26:36.172Z,13.59
2022-09-12T20:29:05.963Z,13.59
2022-09-12T20:31:35.254Z,13.61
2022-09-12T20:34:05.230Z,13.62
2022-09-12T20:36:33.994Z,13.63
2022-09-12T20:39:04.035Z,13.64
2022-09-12T20:41:36.158Z,13.62
2022-09-12T20:44:04.462Z,13.61
2022-09-12T20:46:32.323Z,13.57
2022-09-12T20:49:00.370Z,13.53
2022-09-12T20:51:29.760Z,13.51
2022-09-12T20:53:59.861Z,13.48
2022-09-12T20:56:29.063Z,13.46
2022-09-12T20:58:58.137Z,13.43
2022-09-12T21:01:27.814Z,13.43
2022-09-12T21:03:56.057Z,13.39
2022-09-12T21:06:24.239Z,13.35
2022-09-12T21:08:52.838Z,13.33
2022-09-12T21:11:21.337Z,13.32
2022-09-12T21:13:49.632Z,13.32
2022-09-12T21:16:21.078Z,13.33
2022-09-12T21:18:57.680Z,13.34
2022-09-12T21:21:26.825Z,13.35
2022-09-12T21:23:58.795Z,13.36
2022-09-12T21:26:27.363Z,13.39
2022-09-12T21:28:55.859Z,13.40
2022-09-12T21:31:24.987Z,13.42
2022-09-12T21:33:53.078Z,13.39
2022-09-12T21:36:21.364Z,13.38
2022-09-12T21:38:49.478Z,13.36
2022-09-12T21:41:18.546Z,13.32
2022-09-12T21:43:46.690Z,13.32
2022-09-12T21:46:14.937Z,13.29
2022-09-12T21:48:43.655Z,13.27
2022-09-12T21:51:12.129Z,13.26
2022-09-12T21:53:40.179Z,13.24
2022-09-12T21:56:09.085Z,13.23
2022-09-12T21:58:38.119Z,13.19
2022-09-12T22:01:09.715Z,13.18
2022-09-12T22:03:38.036Z,13.16
2022-09-12T22:06:07.565Z,13.14
2022-09-12T22:08:37.720Z,13.11
2022-09-12T22:11:09.779Z,13.09
2022-09-12T22:13:39.943Z,13.06
2022-09-12T22:16:08.109Z,13.04
2022-09-12T22:18:37.632Z,12.99
2022-09-12T22:21:09.331Z,13.01
2022-09-12T22:23:56.079Z,13.05
2022-09-12T22:26:24.633Z,13.05
2022-09-12T22:28:54.593Z,13.05
2022-09-12T22:31:23.365Z,13.03
2022-09-12T22:33:51.542Z,12.99
2022-09-12T22:36:19.415Z,12.97
2022-09-12T22:38:47.471Z,12.99
2022-09-12T22:41:15.846Z,13.03
2022-09-12T22:43:43.626Z,13.03
2022-09-12T22:46:12.696Z,13.07
2022-09-12T22:48:41.647Z,13.11
2022-09-12T22:51:11.053Z,13.13
2022-09-12T22:53:39.240Z,13.15
2022-09-12T22:56:08.322Z,13.14
2022-09-12T22:58:37.675Z,13.15
2022-09-12T23:01:06.502Z,13.15
2022-09-12T23:03:36.648Z,13.11
2022-09-12T23:06:05.657Z,13.12
2022-09-12T23:08:38.322Z,13.09
2022-09-12T23:11:11.974Z,13.07
2022-09-12T23:13:42.997Z,13.03
2022-09-12T23:16:16.312Z,12.99
2022-09-12T23:18:44.530Z,12.97
2022-09-12T23:21:14.434Z,12.95
2022-09-12T23:23:42.348Z,12.92
2022-09-12T23:26:17.357Z,12.91
2022-09-12T23:28:53.800Z,12.89
2022-09-12T23:31:24.649Z,12.88
2022-09-12T23:33:53.471Z,12.87
2022-09-12T23:36:22.483Z,12.87
2022-09-12T23:38:50.326Z,12.88
2022-09-12T23:41:19.078Z,12.90
2022-09-12T23:43:47.223Z,12.93
2022-09-12T23:46:17.017Z,12.96
2022-09-12T23:48:45.083Z,12.98
2022-09-12T23:51:13.737Z,12.97
2022-09-12T23:53:41.975Z,12.96
2022-09-12T23:56:10.290Z,12.95
2022-09-12T23:58:38.411Z,12.94
